Time;durP1;ratioP1;P1;durP2;ratioP2;P2;SDS_P1;SDS_P2;PMS_P1;PMS_P2;Temp;Humidity;BMP_temperature;BMP_pressure;BME280_temperature;BME280_humidity;BME280_pressure;Samples;Min_cycle;Max_cycle;Signal;HPM_P1;HPM_P2
2021/12/11 00:02:34;;;;;;;6.58;4.67;;;3.60;99.90;;;;;;1925507;72;22223;-90
2021/12/11 00:05:25;;;;;;;6.72;4.67;;;3.60;99.90;;;;;;1910043;75;21767;-91
2021/12/11 00:11:00;;;;;;;8.28;5.65;;;3.70;99.90;;;;;;1958973;72;22183;-89
2021/12/11 00:17:20;;;;;;;8.65;7.35;;;3.60;99.90;;;;;;2087316;68;22110;-90
2021/12/11 00:20:17;;;;;;;10.98;8.45;;;3.50;99.90;;;;;;2035192;70;21096;-89
2021/12/11 00:23:09;;;;;;;11.43;8.43;;;3.50;99.90;;;;;;2035987;70;21139;-89
2021/12/11 00:26:00;;;;;;;12.15;9.50;;;3.50;99.90;;;;;;2057734;69;21163;-89
2021/12/11 00:29:12;;;;;;;13.45;9.83;;;3.50;99.90;;;;;;2033734;69;21026;-89
2021/12/11 00:32:06;;;;;;;15.30;9.68;;;3.40;99.90;;;;;;2045634;70;21042;-89
2021/12/11 00:35:00;;;;;;;12.07;9.28;;;3.30;99.90;;;;;;2066645;69;21031;-89
2021/12/11 00:37:52;;;;;;;10.70;8.38;;;3.20;99.90;;;;;;2037825;69;21067;-89
2021/12/11 00:40:45;;;;;;;9.23;6.83;;;3.20;99.90;;;;;;2043915;69;21144;-89
2021/12/11 00:46:18;;;;;;;6.05;4.00;;;3.20;99.90;;;;;;1946251;72;22139;-90
2021/12/11 00:51:54;;;;;;;2.30;1.50;;;3.30;99.90;;;;;;1955224;72;22263;-90
2021/12/11 00:54:46;;;;;;;2.35;1.25;;;3.20;99.90;;;;;;1913823;74;21154;-90
2021/12/11 00:57:37;;;;;;;2.58;1.30;;;3.40;99.90;;;;;;1917937;74;21184;-90
2021/12/11 01:03:19;;;;;;;4.95;1.20;;;3.60;99.90;;;;;;1975430;72;22245;-90
2021/12/11 01:06:17;;;;;;;2.02;1.20;;;3.80;99.90;;;;;;1917869;73;21090;-90
2021/12/11 01:12:05;;;;;;;2.95;1.10;;;3.90;99.90;;;;;;1944001;72;22193;-89
2021/12/11 01:14:59;;;;;;;4.17;1.02;;;3.90;99.90;;;;;;1917110;75;21156;-90
2021/12/11 01:18:01;;;;;;;4.33;1.27;;;4.00;99.90;;;;;;1937554;73;21145;-89
2021/12/11 01:20:59;;;;;;;5.42;1.55;;;4.00;99.90;;;;;;1943943;73;21154;-89
2021/12/11 01:26:49;;;;;;;2.92;1.00;;;4.00;99.90;;;;;;1924109;72;22102;-90
2021/12/11 01:29:41;;;;;;;4.87;0.90;;;4.00;99.90;;;;;;1903203;75;21095;-89
2021/12/11 01:32:34;;;;;;;4.08;0.88;;;4.10;99.90;;;;;;1874992;75;21132;-90
2021/12/11 01:35:26;;;;;;;3.22;1.10;;;4.00;99.90;;;;;;1906397;74;21135;-89
2021/12/11 01:41:23;;;;;;;4.80;1.27;;;4.00;99.90;;;;;;1944168;72;22263;-90
2021/12/11 01:44:17;;;;;;;5.33;2.33;;;3.90;99.90;;;;;;1905546;75;21102;-90
2021/12/11 01:47:12;;;;;;;2.20;1.55;;;4.00;99.90;;;;;;1905374;75;21072;-90
2021/12/11 01:52:49;;;;;;;4.35;2.35;;;3.70;99.90;;;;;;1958433;72;22285;-90
2021/12/11 01:55:45;;;;;;;2.95;1.50;;;3.70;99.90;;;;;;1910729;75;21144;-89
2021/12/11 01:58:40;;;;;;;3.87;2.05;;;3.70;99.90;;;;;;1903782;75;21042;-89
2021/12/11 02:01:35;;;;;;;5.60;3.83;;;3.80;99.90;;;;;;1913605;75;21169;-89
2021/12/11 02:07:31;;;;;;;4.12;3.25;;;3.50;99.90;;;;;;1942999;72;22241;-89
2021/12/11 02:10:25;;;;;;;5.72;3.42;;;3.50;99.90;;;;;;1833847;77;21070;-90
2021/12/11 02:13:27;;;;;;;6.12;4.15;;;3.40;99.90;;;;;;1833300;78;21134;-90
2021/12/11 02:16:20;;;;;;;4.58;3.05;;;3.50;99.90;;;;;;1899188;75;21135;-89
2021/12/11 02:19:36;;;;;;;3.62;2.58;;;3.40;99.90;;;;;;1895310;75;21085;-90
2021/12/11 02:22:29;;;;;;;3.70;2.83;;;3.40;99.90;;;;;;1878577;75;21091;-89
2021/12/11 02:28:10;;;;;;;3.30;2.12;;;3.40;99.90;;;;;;1939152;72;22249;-90
2021/12/11 02:31:05;;;;;;;2.98;1.85;;;3.40;99.90;;;;;;1900953;75;21158;-90
2021/12/11 02:36:43;;;;;;;6.90;2.30;;;3.50;99.90;;;;;;1951157;72;22083;-90
2021/12/11 02:39:38;;;;;;;3.52;2.35;;;3.50;99.90;;;;;;1885218;75;21124;-89
2021/12/11 02:42:32;;;;;;;4.17;2.45;;;3.50;99.90;;;;;;1884005;75;21063;-90
2021/12/11 02:48:12;;;;;;;2.10;1.30;;;3.60;99.90;;;;;;1948293;72;22232;-90
2021/12/11 02:51:07;;;;;;;4.58;1.25;;;3.70;99.90;;;;;;1917282;74;21059;-90
2021/12/11 02:54:02;;;;;;;2.80;1.15;;;3.80;99.90;;;;;;1917703;75;21130;-90
2021/12/11 02:56:56;;;;;;;4.95;0.93;;;3.90;99.90;;;;;;1895890;75;21059;-90
2021/12/11 03:00:14;;;;;;;2.92;0.80;;;3.90;99.90;;;;;;1894038;75;21112;-89
2021/12/11 03:03:09;;;;;;;2.17;0.82;;;3.90;99.90;;;;;;1888125;75;21169;-89
2021/12/11 03:06:05;;;;;;;4.33;0.80;;;4.00;99.90;;;;;;1898681;75;21115;-89
2021/12/11 03:08:56;;;;;;;6.00;0.82;;;3.90;99.90;;;;;;1908717;75;21051;-91
2021/12/11 03:11:47;;;;;;;4.30;1.40;;;4.00;99.90;;;;;;1907349;75;21150;-90
2021/12/11 03:14:40;;;;;;;2.62;1.67;;;4.00;99.90;;;;;;1909796;75;21049;-89
2021/12/11 03:17:32;;;;;;;2.35;1.92;;;3.90;99.90;;;;;;1901045;75;21109;-91
2021/12/11 03:20:25;;;;;;;4.17;2.10;;;3.80;99.90;;;;;;1917845;75;21102;-89
2021/12/11 03:23:17;;;;;;;3.58;2.08;;;3.80;99.90;;;;;;1889412;75;21136;-89
2021/12/11 03:26:08;;;;;;;3.08;1.57;;;3.80;99.90;;;;;;1915341;75;21087;-89
2021/12/11 03:29:00;;;;;;;3.50;2.30;;;3.80;99.90;;;;;;1899792;75;21139;-89
2021/12/11 03:31:52;;;;;;;4.78;2.55;;;3.70;99.90;;;;;;1898028;75;21059;-89
2021/12/11 03:34:44;;;;;;;3.83;2.12;;;3.70;99.90;;;;;;1905135;75;21063;-89
2021/12/11 03:40:38;;;;;;;3.87;2.15;;;3.50;99.90;;;;;;1953686;72;22107;-90
2021/12/11 03:46:12;;;;;;;4.67;2.55;;;3.50;99.90;;;;;;1932507;72;22151;-90
2021/12/11 03:49:07;;;;;;;3.35;2.70;;;3.50;99.90;;;;;;1914660;75;21148;-89
2021/12/11 03:51:59;;;;;;;4.60;3.37;;;3.40;99.90;;;;;;1884891;76;21113;-89
2021/12/11 03:54:53;;;;;;;4.35;3.15;;;3.40;99.90;;;;;;1884855;76;21106;-90
2021/12/11 03:58:04;;;;;;;3.80;2.27;;;3.40;99.90;;;;;;1900221;75;21071;-89
2021/12/11 04:00:59;;;;;;;3.50;1.90;;;3.40;99.90;;;;;;1895922;75;21080;-90
2021/12/11 04:03:53;;;;;;;2.83;2.30;;;3.40;99.90;;;;;;1895305;75;21171;-90
2021/12/11 04:06:44;;;;;;;2.80;1.20;;;3.50;99.90;;;;;;1916687;75;21055;-90
2021/12/11 04:12:28;;;;;;;5.62;3.60;;;3.50;99.90;;;;;;1962770;72;22230;-89
2021/12/11 04:18:02;;;;;;;5.17;3.72;;;3.40;99.90;;;;;;1956692;72;22116;-90
2021/12/11 04:20:54;;;;;;;6.55;3.55;;;3.40;99.90;;;;;;1899619;75;21097;-90
2021/12/11 04:26:30;;;;;;;3.85;2.65;;;3.40;99.90;;;;;;1928430;72;22133;-90
2021/12/11 04:29:22;;;;;;;3.10;1.70;;;3.40;99.90;;;;;;1894470;75;21083;-90
2021/12/11 04:32:13;;;;;;;4.42;1.50;;;3.50;99.90;;;;;;1890378;75;21060;-90
2021/12/11 04:35:07;;;;;;;2.80;1.02;;;3.50;99.90;;;;;;1901049;75;21047;-90
2021/12/11 04:38:18;;;;;;;6.12;1.20;;;3.50;99.90;;;;;;1884224;75;21138;-89
2021/12/11 04:41:14;;;;;;;3.00;0.98;;;3.60;99.90;;;;;;1899351;75;21117;-89
2021/12/11 04:44:08;;;;;;;2.05;0.65;;;3.70;99.90;;;;;;1900575;75;21207;-90
2021/12/11 04:46:59;;;;;;;2.33;0.80;;;3.80;99.90;;;;;;1886532;75;21093;-89
2021/12/11 04:49:56;;;;;;;4.30;0.90;;;3.80;99.90;;;;;;1897012;75;21086;-91
2021/12/11 04:52:53;;;;;;;1.95;0.70;;;3.70;99.90;;;;;;1912505;75;21158;-90
2021/12/11 04:55:54;;;;;;;2.10;0.88;;;3.70;99.90;;;;;;1894586;75;21129;-90
2021/12/11 04:58:52;;;;;;;1.85;0.88;;;3.70;99.90;;;;;;1875001;75;21111;-89
2021/12/11 05:01:47;;;;;;;2.75;0.78;;;3.80;99.90;;;;;;1893491;75;21139;-89
2021/12/11 05:04:45;;;;;;;3.05;1.00;;;3.70;99.90;;;;;;1900048;75;21079;-90
2021/12/11 05:07:36;;;;;;;3.85;1.20;;;3.60;99.90;;;;;;1911834;75;21176;-90
2021/12/11 05:10:34;;;;;;;1.12;0.62;;;3.60;99.90;;;;;;1902601;75;21052;-90
2021/12/11 05:13:21;;;;;;;1.50;0.75;;;3.70;99.90;;;;;;1905786;75;21161;-90
2021/12/11 05:16:30;;;;;;;2.05;1.10;;;3.70;99.90;;;;;;1895870;75;21040;-90
2021/12/11 05:19:41;;;;;;;2.50;1.27;;;3.70;99.90;;;;;;1873882;75;21051;-90
2021/12/11 05:22:32;;;;;;;2.12;0.80;;;3.80;99.90;;;;;;1888166;75;21163;-89
2021/12/11 05:25:23;;;;;;;2.60;1.10;;;3.80;99.90;;;;;;1885176;75;21086;-89
2021/12/11 05:30:57;;;;;;;2.60;1.10;;;3.80;99.90;;;;;;1932930;72;22127;-90
2021/12/11 05:33:49;;;;;;;3.65;1.00;;;3.80;99.90;;;;;;1872301;76;21067;-91
2021/12/11 05:36:41;;;;;;;1.62;1.00;;;3.80;99.90;;;;;;1873339;76;21172;-91
2021/12/11 05:39:32;;;;;;;2.08;1.05;;;3.80;99.90;;;;;;1901038;75;21153;-91
2021/12/11 05:42:43;;;;;;;3.58;0.82;;;3.80;99.90;;;;;;1883833;75;21039;-91
2021/12/11 05:45:35;;;;;;;2.40;1.07;;;3.90;99.90;;;;;;1883286;75;21110;-90
2021/12/11 05:48:26;;;;;;;2.30;1.00;;;3.90;99.90;;;;;;1890174;75;21055;-90
2021/12/11 05:51:21;;;;;;;1.80;1.00;;;4.00;99.90;;;;;;1875690;75;21176;-91
2021/12/11 05:54:15;;;;;;;2.02;1.30;;;3.90;99.90;;;;;;1890453;75;21128;-90
2021/12/11 05:57:11;;;;;;;3.35;1.10;;;3.90;99.90;;;;;;1876062;75;21090;-91
2021/12/11 06:00:05;;;;;;;4.17;1.55;;;3.80;99.90;;;;;;1897106;75;21048;-90
2021/12/11 06:02:58;;;;;;;2.95;1.40;;;3.80;99.90;;;;;;1889501;75;21096;-90
2021/12/11 06:05:50;;;;;;;3.10;1.57;;;3.70;99.90;;;;;;1884628;75;21121;-90
2021/12/11 06:08:43;;;;;;;3.87;1.30;;;3.80;99.90;;;;;;1883872;75;21148;-90
2021/12/11 06:11:35;;;;;;;4.00;1.35;;;3.70;99.90;;;;;;1882113;75;21155;-91
2021/12/11 06:14:28;;;;;;;3.87;1.22;;;3.70;99.90;;;;;;1890677;75;21107;-90
2021/12/11 06:17:25;;;;;;;2.80;1.20;;;3.90;99.90;;;;;;1892634;75;21067;-90
2021/12/11 06:20:36;;;;;;;3.90;1.10;;;3.90;99.90;;;;;;1898467;75;21048;-91
2021/12/11 06:23:47;;;;;;;3.33;1.25;;;4.00;99.90;;;;;;1892561;75;21067;-90
2021/12/11 06:26:39;;;;;;;4.25;1.57;;;3.90;99.90;;;;;;1902961;75;21068;-90
2021/12/11 06:29:31;;;;;;;3.50;1.42;;;3.90;99.90;;;;;;1883676;75;21090;-90
2021/12/11 06:32:23;;;;;;;2.70;1.20;;;3.80;99.90;;;;;;1905405;75;21056;-91
2021/12/11 06:35:20;;;;;;;3.55;1.47;;;3.70;99.90;;;;;;1889517;75;21060;-90
2021/12/11 06:38:13;;;;;;;3.35;1.30;;;3.70;99.90;;;;;;1905027;75;21110;-91
2021/12/11 06:41:07;;;;;;;4.65;1.92;;;3.70;99.90;;;;;;1883366;75;21052;-89
2021/12/11 06:44:00;;;;;;;2.47;1.47;;;3.70;99.90;;;;;;1892540;75;21039;-90
2021/12/11 06:46:54;;;;;;;2.77;1.40;;;3.70;99.90;;;;;;1887450;75;21065;-90
2021/12/11 06:49:47;;;;;;;3.70;1.67;;;3.70;99.90;;;;;;1896526;75;21213;-90
2021/12/11 06:52:39;;;;;;;2.67;1.50;;;3.70;99.90;;;;;;1896539;75;21146;-90
2021/12/11 06:55:31;;;;;;;5.42;1.40;;;3.70;99.90;;;;;;1872612;76;21214;-90
2021/12/11 06:58:25;;;;;;;4.22;1.20;;;3.60;99.90;;;;;;1892476;75;21168;-90
2021/12/11 07:01:17;;;;;;;3.25;1.30;;;3.70;99.90;;;;;;1874161;75;21114;-90
2021/12/11 07:04:11;;;;;;;4.83;1.70;;;3.80;99.90;;;;;;1878181;75;21094;-90
2021/12/11 07:07:02;;;;;;;2.95;1.70;;;4.00;99.90;;;;;;1893909;75;21113;-90
2021/12/11 07:09:55;;;;;;;4.17;1.90;;;3.90;99.90;;;;;;1893515;75;21040;-91
2021/12/11 07:12:47;;;;;;;4.05;1.70;;;3.80;99.90;;;;;;1889588;75;21095;-91
2021/12/11 07:15:39;;;;;;;4.20;1.82;;;3.80;99.90;;;;;;1885041;75;21157;-90
2021/12/11 07:21:10;;;;;;;4.22;1.67;;;3.90;99.90;;;;;;1946317;72;22155;-91
2021/12/11 07:24:02;;;;;;;3.37;1.30;;;3.90;99.90;;;;;;1874262;75;21107;-90
2021/12/11 07:26:53;;;;;;;2.92;1.70;;;3.90;99.90;;;;;;1873303;76;21114;-90
2021/12/11 07:32:27;;;;;;;6.80;1.50;;;4.00;99.90;;;;;;1945767;72;22171;-89
2021/12/11 07:35:19;;;;;;;4.08;1.60;;;4.00;99.90;;;;;;1904716;74;21177;-90
2021/12/11 07:41:04;;;;;;;5.03;1.80;;;3.90;99.90;;;;;;1950018;72;22333;-91
2021/12/11 07:46:37;;;;;;;2.75;1.45;;;3.90;99.90;;;;;;1958035;72;22123;-91
2021/12/11 07:49:29;;;;;;;4.42;1.40;;;4.00;99.90;;;;;;1875407;75;21068;-90
2021/12/11 07:52:20;;;;;;;4.17;1.77;;;4.10;99.90;;;;;;1903632;75;21052;-90
2021/12/11 07:55:12;;;;;;;2.83;1.92;;;4.20;99.90;;;;;;1905259;75;21164;-89
2021/12/11 07:58:22;;;;;;;2.90;1.32;;;4.20;99.90;;;;;;1890256;75;21131;-89
2021/12/11 08:01:14;;;;;;;3.52;1.20;;;4.20;99.90;;;;;;1878364;75;21055;-90
2021/12/11 08:04:07;;;;;;;3.42;1.52;;;4.20;99.90;;;;;;1896799;75;21172;-90
2021/12/11 08:06:59;;;;;;;5.75;2.20;;;4.20;99.90;;;;;;1901660;75;21112;-90
2021/12/11 08:09:50;;;;;;;3.47;1.80;;;4.20;99.90;;;;;;1897871;75;21540;-89
2021/12/11 08:12:43;;;;;;;5.97;2.60;;;4.20;99.90;;;;;;1888260;75;21133;-89
2021/12/11 08:15:34;;;;;;;4.33;2.00;;;4.20;99.90;;;;;;1893261;75;21618;-90
2021/12/11 08:21:11;;;;;;;5.60;2.60;;;4.30;99.90;;;;;;1951777;72;20192;-90
2021/12/11 08:24:05;;;;;;;5.33;1.67;;;4.30;99.90;;;;;;1917639;75;21147;-90
2021/12/11 08:27:00;;;;;;;5.28;1.45;;;4.40;99.90;;;;;;1917967;75;21139;-90
2021/12/11 08:29:53;;;;;;;5.58;1.57;;;4.50;99.90;;;;;;1917494;75;21165;-90
2021/12/11 08:33:03;;;;;;;5.17;1.40;;;4.50;99.90;;;;;;1917397;75;21136;-89
2021/12/11 08:35:56;;;;;;;5.97;1.30;;;4.50;99.90;;;;;;1940356;73;21118;-89
2021/12/11 08:41:33;;;;;;;5.58;2.95;;;4.50;99.90;;;;;;1924958;72;27962;-90
2021/12/11 08:47:43;;;;;;;5.67;2.83;;;4.50;99.90;;;;;;2075918;68;22120;-91
2021/12/11 08:50:34;;;;;;;5.97;3.40;;;4.50;99.90;;;;;;2057929;69;21066;-90
2021/12/11 08:53:29;;;;;;;5.60;2.42;;;4.50;99.90;;;;;;2032481;70;21132;-90
2021/12/11 08:56:22;;;;;;;4.45;2.10;;;4.70;99.90;;;;;;2006031;70;21038;-89
2021/12/11 08:59:33;;;;;;;5.30;2.60;;;4.70;99.90;;;;;;2048033;69;21047;-89
2021/12/11 09:03:09;;;;;;;4.65;2.15;;;4.80;99.90;;;;;;1960870;72;28073;-81
2021/12/11 09:06:06;;;;;;;4.45;2.20;;;4.90;99.90;;;;;;1933520;74;21169;-80
2021/12/11 09:11:40;;;;;;;5.53;2.30;;;5.00;99.90;;;;;;1953527;72;22126;-88
2021/12/11 09:14:35;;;;;;;8.28;3.00;;;5.10;99.90;;;;;;1884604;75;21182;-85
2021/12/11 09:17:31;;;;;;;4.80;2.60;;;5.10;99.90;;;;;;1885114;76;21126;-85
2021/12/11 09:23:06;;;;;;;5.25;2.72;;;5.20;99.90;;;;;;1955604;72;22096;-85
2021/12/11 09:26:00;;;;;;;4.12;2.17;;;5.30;99.90;;;;;;1905161;75;21451;-85
2021/12/11 09:31:34;;;;;;;4.67;2.47;;;5.30;99.90;;;;;;1943603;72;22269;-84
2021/12/11 09:37:07;;;;;;;4.25;1.80;;;5.30;99.90;;;;;;1957672;72;22261;-85
2021/12/11 09:40:02;;;;;;;6.28;1.85;;;5.30;99.90;;;;;;1903507;75;21191;-85
2021/12/11 09:42:51;;;;;;;5.40;1.22;;;5.30;99.90;;;;;;1906133;75;21157;-85
2021/12/11 09:45:44;;;;;;;5.22;2.08;;;5.20;99.90;;;;;;1908901;75;21160;-84
2021/12/11 09:48:55;;;;;;;3.77;2.05;;;5.20;99.90;;;;;;1905198;75;21494;-85
2021/12/11 09:51:49;;;;;;;8.58;1.65;;;5.30;99.90;;;;;;1893385;75;21092;-84
2021/12/11 09:57:21;;;;;;;6.75;2.70;;;5.20;99.90;;;;;;1943318;72;22182;-84
2021/12/11 10:00:17;;;;;;;8.20;2.47;;;5.30;99.90;;;;;;1938336;73;21054;-85
2021/12/11 10:03:10;;;;;;;4.58;1.37;;;5.30;99.90;;;;;;1937019;73;21084;-84
2021/12/11 10:09:08;;;;;;;4.90;1.60;;;5.30;99.90;;;;;;1946553;72;22227;-86
2021/12/11 10:11:55;;;;;;;6.37;2.40;;;5.30;99.90;;;;;;1921788;73;21109;-86
2021/12/11 10:17:29;;;;;;;6.40;1.60;;;5.40;99.90;;;;;;1942149;72;22211;-85
2021/12/11 10:20:24;;;;;;;4.57;1.27;;;5.40;99.90;;;;;;1940494;73;21189;-85
2021/12/11 10:25:57;;;;;;;4.65;1.62;;;5.40;99.90;;;;;;1948151;72;22225;-86
2021/12/11 10:31:30;;;;;;;4.65;1.47;;;5.30;99.90;;;;;;1947383;72;22256;-86
2021/12/11 10:34:25;;;;;;;4.62;1.92;;;5.30;99.90;;;;;;1917386;74;21164;-85
2021/12/11 10:37:19;;;;;;;6.33;1.60;;;5.20;99.90;;;;;;1919132;74;21051;-85
2021/12/11 10:40:15;;;;;;;3.90;1.20;;;5.30;99.90;;;;;;1914356;75;21498;-86
2021/12/11 10:46:06;;;;;;;5.53;1.70;;;5.20;99.90;;;;;;1961368;72;22277;-86
2021/12/11 10:48:58;;;;;;;4.75;1.32;;;5.10;99.90;;;;;;1916959;73;21146;-85
2021/12/11 10:51:54;;;;;;;3.45;1.42;;;5.20;99.90;;;;;;1914554;75;21047;-85
2021/12/11 10:54:46;;;;;;;3.70;1.57;;;5.10;99.90;;;;;;1924945;73;21051;-86
2021/12/11 11:00:43;;;;;;;5.85;2.05;;;5.20;99.90;;;;;;1936477;72;20246;-85
2021/12/11 11:06:16;;;;;;;5.58;1.92;;;5.20;99.90;;;;;;1943935;72;22154;-85
2021/12/11 11:09:09;;;;;;;3.92;1.92;;;5.10;99.90;;;;;;1917135;75;21056;-85
2021/12/11 11:12:04;;;;;;;6.47;1.37;;;5.20;99.90;;;;;;1940147;73;21064;-85
2021/12/11 11:14:56;;;;;;;4.60;1.40;;;5.10;99.90;;;;;;1936436;73;21180;-84
2021/12/11 11:18:08;;;;;;;4.90;2.27;;;5.20;99.90;;;;;;1917273;75;21086;-84
2021/12/11 11:21:02;;;;;;;6.03;1.52;;;5.10;99.90;;;;;;1917300;75;21165;-84
2021/12/11 11:26:35;;;;;;;3.83;1.75;;;5.30;99.90;;;;;;1951263;72;22169;-85
2021/12/11 11:29:28;;;;;;;8.55;1.95;;;5.30;99.90;;;;;;1907808;75;21047;-85
2021/12/11 11:32:22;;;;;;;6.42;3.55;;;5.20;99.90;;;;;;1899076;75;21163;-85
2021/12/11 11:35:17;;;;;;;3.85;1.30;;;5.20;99.90;;;;;;1915143;75;21148;-85
2021/12/11 11:41:08;;;;;;;5.62;2.65;;;5.30;99.90;;;;;;1947253;72;22263;-85
2021/12/11 11:44:01;;;;;;;7.65;1.40;;;5.30;99.90;;;;;;1930450;73;21160;-84
2021/12/11 11:46:56;;;;;;;2.52;1.40;;;5.10;99.90;;;;;;1917678;75;21109;-85
2021/12/11 11:49:47;;;;;;;5.17;1.20;;;5.10;99.90;;;;;;1917327;73;21173;-85
2021/12/11 11:55:41;;;;;;;4.75;1.47;;;5.20;99.90;;;;;;1935871;72;22285;-85
2021/12/11 11:58:34;;;;;;;3.83;1.60;;;5.20;99.90;;;;;;1905985;75;21110;-85
2021/12/11 12:01:29;;;;;;;2.87;1.30;;;5.20;99.90;;;;;;1896883;75;21083;-84
2021/12/11 12:07:02;;;;;;;2.12;1.20;;;5.20;99.90;;;;;;1930193;72;22131;-84
2021/12/11 12:09:55;;;;;;;3.70;1.47;;;5.20;99.90;;;;;;1894147;75;21106;-84
2021/12/11 12:12:46;;;;;;;4.97;1.60;;;5.20;99.90;;;;;;1872759;75;21085;-84
2021/12/11 12:18:21;;;;;;;4.20;1.40;;;5.20;99.90;;;;;;1948197;72;22264;-84
2021/12/11 12:21:15;;;;;;;4.55;1.50;;;5.30;99.90;;;;;;1906871;75;21054;-84
2021/12/11 12:24:07;;;;;;;2.77;1.17;;;5.30;99.90;;;;;;1917460;75;21499;-84
2021/12/11 12:27:01;;;;;;;5.60;1.80;;;5.30;99.90;;;;;;1917236;75;21116;-84
2021/12/11 12:30:15;;;;;;;2.25;1.15;;;5.50;99.90;;;;;;1913073;75;21151;-85
2021/12/11 12:33:08;;;;;;;3.83;1.30;;;5.50;99.90;;;;;;1917463;75;21094;-85
2021/12/11 12:36:01;;;;;;;3.50;1.32;;;5.60;99.90;;;;;;1911227;75;21053;-84
2021/12/11 12:41:34;;;;;;;4.72;1.60;;;5.60;99.90;;;;;;1958038;72;22244;-85
2021/12/11 12:47:09;;;;;;;5.78;1.22;;;5.70;99.90;;;;;;1958079;72;22253;-84
2021/12/11 12:50:03;;;;;;;5.15;1.65;;;5.50;99.90;;;;;;1907365;75;21146;-84
2021/12/11 12:52:56;;;;;;;4.45;1.32;;;5.60;99.90;;;;;;1897765;75;21084;-84
2021/12/11 12:55:50;;;;;;;4.47;1.30;;;5.50;99.90;;;;;;1897783;75;21608;-84
2021/12/11 13:04:26;;;;;;;4.45;1.42;;;5.60;99.90;;;;;;1957926;72;22256;-85
2021/12/11 13:07:20;;;;;;;3.05;1.37;;;5.50;99.90;;;;;;1895471;75;21092;-85
2021/12/11 13:10:14;;;;;;;7.20;1.50;;;5.50;99.90;;;;;;1905577;75;21086;-84
2021/12/11 13:13:08;;;;;;;6.47;1.67;;;5.50;99.90;;;;;;1894386;75;21064;-84
2021/12/11 13:16:21;;;;;;;3.67;1.47;;;5.50;99.90;;;;;;1906025;75;21051;-85
2021/12/11 13:21:53;;;;;;;3.95;1.82;;;5.40;99.90;;;;;;1925301;72;22211;-84
2021/12/11 13:24:49;;;;;;;3.87;1.40;;;5.50;99.90;;;;;;1902408;75;21105;-83
2021/12/11 13:27:39;;;;;;;2.62;1.20;;;5.50;99.90;;;;;;1905288;75;21113;-83
2021/12/11 13:30:34;;;;;;;5.75;1.98;;;5.60;99.90;;;;;;1901545;75;21048;-83
2021/12/11 13:36:25;;;;;;;5.65;1.82;;;5.50;99.90;;;;;;1943577;72;22275;-83
2021/12/11 13:39:19;;;;;;;3.80;1.70;;;5.60;99.90;;;;;;1925867;73;21098;-83
2021/12/11 13:42:15;;;;;;;3.85;1.37;;;5.60;99.90;;;;;;1917343;75;21063;-82
2021/12/11 13:45:10;;;;;;;3.33;1.50;;;5.60;99.90;;;;;;1922646;73;21047;-84
2021/12/11 13:51:02;;;;;;;3.72;1.82;;;5.70;99.90;;;;;;1944391;72;22116;-84
2021/12/11 13:53:56;;;;;;;5.10;1.50;;;5.60;99.90;;;;;;1911541;74;21566;-83
2021/12/11 13:56:50;;;;;;;4.85;2.00;;;5.60;99.90;;;;;;1903129;74;21062;-82
2021/12/11 13:59:42;;;;;;;7.60;1.85;;;5.60;99.90;;;;;;1922542;74;21217;-82
2021/12/11 14:02:53;;;;;;;4.83;1.60;;;5.60;99.90;;;;;;1905198;75;21047;-83
2021/12/11 14:08:22;;;;;;;5.22;1.70;;;5.50;99.90;;;;;;1949118;72;22377;-83
2021/12/11 14:11:16;;;;;;;3.52;1.47;;;5.60;99.90;;;;;;1917502;75;21238;-83
2021/12/11 14:16:47;;;;;;;3.98;1.45;;;5.50;99.90;;;;;;1944849;72;23013;-83
2021/12/11 14:22:19;;;;;;;3.67;1.40;;;5.70;99.90;;;;;;1955072;72;22178;-83
2021/12/11 14:25:14;;;;;;;6.17;1.50;;;5.70;99.90;;;;;;1917927;74;21214;-83
2021/12/11 14:30:48;;;;;;;5.12;1.67;;;5.70;99.90;;;;;;1953590;72;22271;-84
2021/12/11 14:33:40;;;;;;;5.20;1.30;;;5.70;99.90;;;;;;1899106;75;21516;-82
2021/12/11 14:39:13;;;;;;;3.60;1.30;;;5.50;99.90;;;;;;1934243;72;22275;-82
2021/12/11 14:44:42;;;;;;;3.50;1.30;;;5.50;99.90;;;;;;1942200;72;22154;-82
2021/12/11 14:47:33;;;;;;;5.00;1.80;;;5.50;99.90;;;;;;1908760;74;21606;-82
2021/12/11 14:50:29;;;;;;;5.17;1.35;;;5.50;99.90;;;;;;1914614;74;21163;-82
2021/12/11 14:53:25;;;;;;;3.22;1.50;;;5.50;99.90;;;;;;1910330;74;21084;-81
2021/12/11 14:59:17;;;;;;;4.58;1.50;;;5.40;99.90;;;;;;1924697;72;22276;-82
2021/12/11 15:02:11;;;;;;;4.75;1.62;;;5.50;99.90;;;;;;1906172;75;21066;-81
2021/12/11 15:05:06;;;;;;;3.47;1.75;;;5.50;99.90;;;;;;1896316;75;21123;-82
2021/12/11 15:07:59;;;;;;;3.25;1.42;;;5.50;99.90;;;;;;1906166;75;21132;-81
2021/12/11 15:13:48;;;;;;;4.75;1.42;;;5.50;99.90;;;;;;1946778;72;22346;-83
2021/12/11 15:19:19;;;;;;;3.05;1.42;;;5.40;99.90;;;;;;1931971;72;22172;-82
2021/12/11 15:24:51;;;;;;;4.12;1.75;;;5.50;99.90;;;;;;1934742;72;22265;-82
2021/12/11 15:27:43;;;;;;;4.42;1.45;;;5.50;99.90;;;;;;1915847;75;21193;-82
2021/12/11 15:30:37;;;;;;;7.03;1.50;;;5.50;99.90;;;;;;1900106;75;21147;-82
2021/12/11 15:33:28;;;;;;;4.00;1.40;;;5.50;99.90;;;;;;1903580;75;21623;-82
2021/12/11 15:39:31;;;;;;;3.67;1.40;;;5.50;99.90;;;;;;1954960;72;22217;-82
2021/12/11 15:42:25;;;;;;;3.05;1.40;;;5.60;99.90;;;;;;1944100;73;21153;-82
2021/12/11 15:45:18;;;;;;;3.85;1.82;;;5.50;99.90;;;;;;1926349;73;21102;-82
2021/12/11 15:48:10;;;;;;;3.95;1.27;;;5.50;99.90;;;;;;1917341;75;21153;-82
2021/12/11 15:53:59;;;;;;;3.47;1.30;;;5.50;99.90;;;;;;1949414;72;22223;-82
2021/12/11 15:56:52;;;;;;;4.97;1.52;;;5.40;99.90;;;;;;1905210;75;21102;-82
2021/12/11 15:59:45;;;;;;;6.05;1.72;;;5.50;99.90;;;;;;1906241;75;21097;-81
2021/12/11 16:02:37;;;;;;;4.45;1.40;;;5.40;99.90;;;;;;1907225;75;21170;-81
2021/12/11 16:05:47;;;;;;;2.83;1.30;;;5.40;99.90;;;;;;1915860;75;21126;-82
2021/12/11 16:11:17;;;;;;;5.20;1.57;;;5.50;99.90;;;;;;1928067;72;22209;-81
2021/12/11 16:14:11;;;;;;;3.70;1.12;;;5.60;99.90;;;;;;1908080;75;21143;-82
2021/12/11 16:19:43;;;;;;;3.10;1.87;;;5.60;99.90;;;;;;1952052;72;22325;-82
2021/12/11 16:22:40;;;;;;;5.28;1.40;;;5.50;99.90;;;;;;1900275;75;21127;-82
2021/12/11 16:25:32;;;;;;;3.02;1.50;;;5.50;99.90;;;;;;1899300;75;21098;-82
2021/12/11 16:31:03;;;;;;;4.20;1.65;;;5.50;99.90;;;;;;1933736;72;22190;-82
2021/12/11 16:33:55;;;;;;;6.92;1.52;;;5.50;99.90;;;;;;1910088;75;21148;-82
2021/12/11 16:39:27;;;;;;;5.05;1.60;;;5.50;99.90;;;;;;1932839;72;22243;-83
2021/12/11 16:43:03;;;;;;;4.33;1.40;;;5.60;99.90;;;;;;1919375;74;21136;-82
2021/12/11 16:48:36;;;;;;;3.75;1.85;;;5.60;99.90;;;;;;1957992;72;22123;-83
2021/12/11 16:54:08;;;;;;;6.15;1.67;;;5.50;99.90;;;;;;1966909;72;22149;-82
2021/12/11 16:57:00;;;;;;;4.20;1.55;;;5.60;99.90;;;;;;1922618;73;21055;-83
2021/12/11 16:59:53;;;;;;;5.22;1.62;;;5.70;99.90;;;;;;1921389;73;21599;-83
2021/12/11 17:02:45;;;;;;;4.08;1.50;;;5.60;99.90;;;;;;1921763;73;21058;-82
2021/12/11 17:09:14;;;;;;;4.00;1.77;;;5.60;99.90;;;;;;1959519;72;27980;-88
2021/12/11 17:14:53;;;;;;;6.45;1.92;;;5.70;99.90;;;;;;1938625;72;28100;-89
2021/12/11 17:17:44;;;;;;;3.42;1.62;;;6.00;99.90;;;;;;1930406;74;21086;-89
2021/12/11 17:20:36;;;;;;;5.53;1.80;;;5.90;99.90;;;;;;1909247;74;21040;-88
2021/12/11 17:23:27;;;;;;;4.15;1.67;;;5.70;99.90;;;;;;1917663;74;21125;-89
2021/12/11 17:26:38;;;;;;;3.85;1.47;;;5.70;99.90;;;;;;1915049;74;21028;-89
2021/12/11 17:29:33;;;;;;;5.53;1.40;;;5.80;99.90;;;;;;1919205;73;21147;-88
2021/12/11 17:32:24;;;;;;;5.92;1.45;;;5.70;99.90;;;;;;1915472;73;21035;-88
2021/12/11 17:35:15;;;;;;;5.70;1.60;;;5.70;99.90;;;;;;1918360;74;21090;-88
2021/12/11 17:43:46;;;;;;;3.92;1.70;;;5.60;99.90;;;;;;1942906;72;22115;-88
2021/12/11 17:49:17;;;;;;;4.10;1.82;;;5.60;99.90;;;;;;1941143;72;22248;-88
2021/12/11 17:52:10;;;;;;;4.55;1.70;;;5.50;99.90;;;;;;1886408;75;21162;-89
2021/12/11 17:55:02;;;;;;;5.03;1.50;;;5.60;99.90;;;;;;1905217;75;21569;-88
2021/12/11 17:57:53;;;;;;;6.40;2.10;;;5.60;99.90;;;;;;1885572;75;21051;-89
2021/12/11 18:01:07;;;;;;;4.70;1.75;;;5.50;99.90;;;;;;1884762;75;21043;-88
2021/12/11 18:04:02;;;;;;;4.33;1.60;;;5.40;99.90;;;;;;1894681;75;21055;-88
2021/12/11 18:06:57;;;;;;;6.58;2.02;;;5.40;99.90;;;;;;1894596;75;21118;-88
2021/12/11 18:09:48;;;;;;;5.22;1.70;;;5.40;99.90;;;;;;1896246;75;21123;-89
2021/12/11 18:12:44;;;;;;;5.35;1.87;;;5.40;99.90;;;;;;1889620;75;21060;-89
2021/12/11 18:15:39;;;;;;;3.87;1.80;;;5.50;99.90;;;;;;1873207;76;21086;-88
2021/12/11 18:18:34;;;;;;;6.20;1.55;;;5.40;99.90;;;;;;1901893;75;21057;-89
2021/12/11 18:24:06;;;;;;;3.90;1.50;;;5.50;99.90;;;;;;1942428;72;22261;-88
2021/12/11 18:27:02;;;;;;;6.00;2.20;;;5.40;99.90;;;;;;1873430;75;21128;-89
2021/12/11 18:29:57;;;;;;;4.90;1.50;;;5.40;99.90;;;;;;1901176;75;21107;-89
2021/12/11 18:32:49;;;;;;;6.67;1.92;;;5.30;99.90;;;;;;1886847;75;21141;-89
2021/12/11 18:36:02;;;;;;;5.78;1.70;;;5.30;99.90;;;;;;1896229;75;21061;-89
2021/12/11 18:38:53;;;;;;;6.03;2.10;;;5.20;99.90;;;;;;1891217;75;21052;-89
2021/12/11 18:41:45;;;;;;;4.30;1.42;;;5.30;99.90;;;;;;1904204;75;21051;-89
2021/12/11 18:44:40;;;;;;;7.10;2.08;;;5.30;99.90;;;;;;1903135;75;21178;-89
2021/12/11 18:47:32;;;;;;;4.70;1.65;;;5.20;99.90;;;;;;1904750;75;21241;-89
2021/12/11 18:50:27;;;;;;;5.15;2.05;;;5.20;99.90;;;;;;1904808;75;21129;-89